createdAt,value
2023-02-16T00:00:43.448Z,51.83
2023-02-16T00:03:19.227Z,58.93
2023-02-16T00:05:46.209Z,57.60
2023-02-16T00:08:12.653Z,66.07
2023-02-16T00:10:39.863Z,50.77
2023-02-16T00:13:46.627Z,53.67
2023-02-16T00:16:18.565Z,49.67
2023-02-16T00:18:45.629Z,46.93
2023-02-16T00:21:12.160Z,53.17
2023-02-16T00:23:38.564Z,52.60
2023-02-16T00:26:05.825Z,55.53
2023-02-16T00:28:32.623Z,49.73
2023-02-16T00:30:59.006Z,58.07
2023-02-16T00:33:25.514Z,55.57
2023-02-16T00:35:51.867Z,45.23
2023-02-16T00:38:18.212Z,54.03
2023-02-16T00:40:44.766Z,53.53
2023-02-16T00:43:29.000Z,53.47
2023-02-16T00:45:56.328Z,54.80
2023-02-16T00:48:24.256Z,57.87
2023-02-16T00:50:52.986Z,51.67
2023-02-16T00:53:19.325Z,59.30
2023-02-16T00:55:46.021Z,49.50
2023-02-16T00:58:29.690Z,54.07
2023-02-16T01:01:06.129Z,49.97
2023-02-16T01:03:32.857Z,61.43
2023-02-16T01:06:17.932Z,48.43
2023-02-16T01:09:02.733Z,56.67
2023-02-16T01:11:31.878Z,57.77
2023-02-16T01:13:58.395Z,65.67
2023-02-16T01:16:32.998Z,48.80
2023-02-16T01:18:59.330Z,51.40
2023-02-16T01:21:25.655Z,51.90
2023-02-16T01:23:52.300Z,50.63
2023-02-16T01:26:20.527Z,66.17
2023-02-16T01:28:47.673Z,46.63
2023-02-16T01:31:16.218Z,44.73
2023-02-16T01:33:43.067Z,50.10
2023-02-16T01:36:33.379Z,50.10
2023-02-16T01:39:00.667Z,45.00
2023-02-16T01:41:44.140Z,45.47
2023-02-16T01:44:24.539Z,56.83
2023-02-16T01:47:07.695Z,46.27
2023-02-16T01:49:36.519Z,45.93
2023-02-16T01:52:24.292Z,49.50
2023-02-16T01:54:56.282Z,52.93
2023-02-16T01:57:26.125Z,41.17
2023-02-16T01:59:55.308Z,48.60
2023-02-16T02:02:26.000Z,49.27
2023-02-16T02:05:18.762Z,44.70
2023-02-16T02:07:52.432Z,48.90
2023-02-16T02:10:30.543Z,52.70
2023-02-16T02:13:07.183Z,55.93
2023-02-16T02:15:35.372Z,42.23
2023-02-16T02:18:02.625Z,45.80
2023-02-16T02:21:10.827Z,50.67
2023-02-16T02:23:53.041Z,53.20
2023-02-16T02:26:48.308Z,48.97
2023-02-16T02:29:33.747Z,44.47
2023-02-16T02:32:17.671Z,53.80
2023-02-16T02:34:57.655Z,51.70
2023-02-16T02:37:42.835Z,47.27
2023-02-16T02:40:34.631Z,44.17
2023-02-16T02:43:33.526Z,50.17
2023-02-16T02:46:16.624Z,50.10
2023-02-16T02:48:43.034Z,45.80
2023-02-16T02:51:28.069Z,48.67
2023-02-16T02:54:22.010Z,49.40
2023-02-16T02:57:20.824Z,50.03
2023-02-16T03:00:41.835Z,45.93
2023-02-16T03:03:24.265Z,52.63
2023-02-16T03:06:00.594Z,50.90
2023-02-16T03:08:30.982Z,55.97
2023-02-16T03:11:28.610Z,55.47
2023-02-16T03:14:00.397Z,47.03
2023-02-16T03:16:32.531Z,44.37
2023-02-16T03:19:18.957Z,48.93
2023-02-16T03:22:04.128Z,47.30
2023-02-16T03:24:51.522Z,50.80
2023-02-16T03:27:42.866Z,43.83
2023-02-16T03:30:11.812Z,42.67
2023-02-16T03:32:39.342Z,45.30
2023-02-16T03:35:06.382Z,49.20
2023-02-16T03:37:33.552Z,41.27
2023-02-16T03:40:18.777Z,40.63
2023-02-16T03:42:52.127Z,42.60
2023-02-16T03:45:20.744Z,42.90
2023-02-16T03:47:47.089Z,46.27
2023-02-16T03:50:13.608Z,43.53
2023-02-16T03:52:40.021Z,48.10
2023-02-16T03:55:06.798Z,45.23
2023-02-16T03:57:33.141Z,47.77
2023-02-16T03:59:59.549Z,42.43
2023-02-16T04:02:28.435Z,48.53
2023-02-16T04:04:54.839Z,47.80
2023-02-16T04:07:21.319Z,42.67
2023-02-16T04:09:47.641Z,42.80
2023-02-16T04:12:32.404Z,41.50
2023-02-16T04:14:58.720Z,49.50
2023-02-16T04:17:25.183Z,52.47
2023-02-16T04:19:51.559Z,43.13
2023-02-16T04:22:17.901Z,50.20
2023-02-16T04:24:44.213Z,47.23
2023-02-16T04:27:10.578Z,45.43
2023-02-16T04:29:36.897Z,51.53
2023-02-16T04:32:03.398Z,49.90
2023-02-16T04:34:29.818Z,46.00
2023-02-16T04:36:56.161Z,48.57
2023-02-16T04:39:22.524Z,41.83
2023-02-16T04:41:48.852Z,50.60
2023-02-16T04:44:15.320Z,50.97
2023-02-16T04:46:41.723Z,53.23
2023-02-16T04:49:08.106Z,47.93
2023-02-16T04:51:34.459Z,46.23
2023-02-16T04:54:00.862Z,48.90
2023-02-16T04:56:28.118Z,54.33
2023-02-16T04:58:55.826Z,54.43
2023-02-16T05:01:25.402Z,56.27
2023-02-16T05:03:52.224Z,52.50
2023-02-16T05:06:18.736Z,56.90
2023-02-16T05:08:45.530Z,57.10
2023-02-16T05:11:30.979Z,49.60
2023-02-16T05:14:17.262Z,50.43
2023-02-16T05:16:44.692Z,49.80
2023-02-16T05:19:14.054Z,50.77
2023-02-16T05:21:40.395Z,57.40
2023-02-16T05:24:10.128Z,57.60
2023-02-16T05:26:39.050Z,59.23
2023-02-16T05:29:05.789Z,66.37
2023-02-16T05:31:32.236Z,57.93
2023-02-16T05:33:58.719Z,70.13
2023-02-16T05:36:25.482Z,52.10
2023-02-16T05:38:51.847Z,58.90
2023-02-16T05:41:23.879Z,54.33
2023-02-16T05:43:55.221Z,59.43
2023-02-16T05:46:23.032Z,56.73
2023-02-16T05:48:50.117Z,58.33
2023-02-16T05:51:16.978Z,55.47
2023-02-16T05:53:43.355Z,59.20
2023-02-16T05:56:10.693Z,63.27
2023-02-16T05:58:37.655Z,65.50
2023-02-16T06:01:04.724Z,62.40
2023-02-16T06:03:31.935Z,56.00
2023-02-16T06:06:00.690Z,66.67
2023-02-16T06:08:27.348Z,53.97
2023-02-16T06:10:54.283Z,57.47
2023-02-16T06:13:21.904Z,54.53
2023-02-16T06:15:52.623Z,56.37
2023-02-16T06:18:19.764Z,60.47
2023-02-16T06:20:46.106Z,51.87
2023-02-16T06:23:13.515Z,54.93
2023-02-16T06:25:45.113Z,69.80
2023-02-16T06:28:11.602Z,65.43
2023-02-16T06:30:37.942Z,63.13
2023-02-16T06:33:04.920Z,52.30
2023-02-16T06:35:31.785Z,48.40
2023-02-16T06:37:59.126Z,56.47
2023-02-16T06:40:25.877Z,57.40
2023-02-16T06:42:52.211Z,62.97
2023-02-16T06:45:19.074Z,57.80
2023-02-16T06:47:45.394Z,56.93
2023-02-16T06:50:14.297Z,59.07
2023-02-16T06:52:40.686Z,60.87
2023-02-16T06:55:07.530Z,57.17
2023-02-16T06:57:33.870Z,63.10
2023-02-16T07:00:00.210Z,68.60
2023-02-16T07:02:26.523Z,66.13
2023-02-16T07:04:54.361Z,60.97
2023-02-16T07:07:20.801Z,67.50
2023-02-16T07:09:47.161Z,61.10
2023-02-16T07:12:13.546Z,53.27
2023-02-16T07:14:39.899Z,59.80
2023-02-16T07:17:06.454Z,71.90
2023-02-16T07:19:33.713Z,70.30
2023-02-16T07:22:03.318Z,80.03
2023-02-16T07:24:29.676Z,64.33
2023-02-16T07:26:56.235Z,67.77
2023-02-16T07:29:22.784Z,69.10
2023-02-16T07:31:49.270Z,84.63
2023-02-16T07:34:15.664Z,64.33
2023-02-16T07:36:42.245Z,65.97
2023-02-16T07:39:08.587Z,70.93
2023-02-16T07:41:34.905Z,58.50
2023-02-16T07:44:07.031Z,52.37
2023-02-16T07:46:33.516Z,56.63
2023-02-16T07:49:00.313Z,54.93
2023-02-16T07:51:29.035Z,59.67
2023-02-16T07:53:55.413Z,75.97
2023-02-16T07:56:24.841Z,60.97
2023-02-16T07:58:53.022Z,64.90
2023-02-16T08:01:19.418Z,58.57
2023-02-16T08:03:45.749Z,52.90
2023-02-16T08:06:12.605Z,59.97
2023-02-16T08:08:39.512Z,59.43
2023-02-16T08:11:15.045Z,54.57
2023-02-16T08:13:41.552Z,56.57
2023-02-16T08:16:10.569Z,53.10
2023-02-16T08:18:38.015Z,52.80
2023-02-16T08:21:34.527Z,46.00
2023-02-16T08:24:04.794Z,44.47
2023-02-16T08:26:37.549Z,44.77
2023-02-16T08:29:05.488Z,39.70
2023-02-16T08:31:35.043Z,49.77
2023-02-16T08:34:03.252Z,46.97
2023-02-16T08:36:32.825Z,43.97
2023-02-16T08:39:00.747Z,49.93
2023-02-16T08:41:32.671Z,44.97
2023-02-16T08:44:00.666Z,42.90
2023-02-16T08:46:32.286Z,50.43
2023-02-16T08:49:00.049Z,35.37
2023-02-16T08:51:28.833Z,43.77
2023-02-16T08:53:56.828Z,35.57
2023-02-16T08:56:23.598Z,40.27
2023-02-16T08:58:49.948Z,42.97
2023-02-16T09:01:16.364Z,36.07
2023-02-16T09:03:44.918Z,53.03
2023-02-16T09:06:13.811Z,35.93
2023-02-16T09:08:41.830Z,41.80
2023-02-16T09:11:12.520Z,36.97
2023-02-16T09:13:40.840Z,37.73
2023-02-16T09:16:10.074Z,41.00
2023-02-16T09:18:37.140Z,40.20
2023-02-16T09:21:10.840Z,36.60
2023-02-16T09:23:38.718Z,35.37
2023-02-16T09:26:07.948Z,34.07
2023-02-16T09:28:38.707Z,35.53
2023-02-16T09:31:13.815Z,34.77
2023-02-16T09:33:41.907Z,34.97
2023-02-16T09:36:10.252Z,36.03
2023-02-16T09:38:37.701Z,41.63
2023-02-16T09:41:35.597Z,34.20
2023-02-16T09:44:25.641Z,34.57
2023-02-16T09:46:54.918Z,39.93
2023-02-16T09:49:36.971Z,33.83
2023-02-16T09:52:29.105Z,30.00
2023-02-16T09:55:00.995Z,39.10
2023-02-16T09:57:42.487Z,34.90
2023-02-16T10:00:30.688Z,36.70
2023-02-16T10:03:06.015Z,30.47
2023-02-16T10:06:01.467Z,30.23
2023-02-16T10:08:37.139Z,48.30
2023-02-16T10:11:32.602Z,39.47
2023-02-16T10:14:07.965Z,29.43
2023-02-16T10:16:41.754Z,37.70
2023-02-16T10:19:25.805Z,37.13
2023-02-16T10:21:58.319Z,33.37
2023-02-16T10:24:27.751Z,34.47
2023-02-16T10:27:02.615Z,34.03
2023-02-16T10:29:29.162Z,33.63
2023-02-16T10:32:23.105Z,41.00
2023-02-16T10:34:56.800Z,48.83
2023-02-16T10:37:28.947Z,40.67
2023-02-16T10:40:12.549Z,35.77
2023-02-16T10:42:47.077Z,39.50
2023-02-16T10:45:13.392Z,38.63
2023-02-16T10:47:43.565Z,36.27
2023-02-16T10:50:22.785Z,39.13
2023-02-16T10:52:50.145Z,40.27
2023-02-16T10:55:16.836Z,41.13
2023-02-16T10:57:43.810Z,39.17
2023-02-16T11:00:16.513Z,42.57
2023-02-16T11:02:47.593Z,40.50
2023-02-16T11:05:26.186Z,35.73
2023-02-16T11:07:56.568Z,37.03
2023-02-16T11:10:42.081Z,43.17
2023-02-16T11:13:20.400Z,42.63
2023-02-16T11:15:54.389Z,37.67
2023-02-16T11:18:30.115Z,41.40
2023-02-16T11:20:58.354Z,49.17
2023-02-16T11:23:27.823Z,43.17
2023-02-16T11:26:06.379Z,39.27
2023-02-16T11:28:36.760Z,39.87
2023-02-16T11:31:22.168Z,37.27
2023-02-16T11:34:02.568Z,44.57
2023-02-16T11:36:33.752Z,41.90
2023-02-16T11:39:20.642Z,37.93
2023-02-16T11:42:18.481Z,44.70
2023-02-16T11:44:52.879Z,41.83
2023-02-16T11:47:22.329Z,45.07
2023-02-16T11:49:51.810Z,43.40
2023-02-16T11:52:23.105Z,39.70
2023-02-16T11:54:55.745Z,43.77
2023-02-16T11:57:28.414Z,37.93
2023-02-16T11:59:56.372Z,49.07
2023-02-16T12:02:25.759Z,44.70
2023-02-16T12:04:59.061Z,42.33
2023-02-16T12:07:49.874Z,47.47
2023-02-16T12:10:31.027Z,45.30
2023-02-16T12:13:16.419Z,40.60
2023-02-16T12:16:01.676Z,38.30
2023-02-16T12:18:54.910Z,42.03
2023-02-16T12:21:30.369Z,41.67
2023-02-16T12:24:29.086Z,40.63
2023-02-16T12:27:00.533Z,40.50
2023-02-16T12:29:33.666Z,48.87
2023-02-16T12:32:02.718Z,41.87
2023-02-16T12:34:32.118Z,38.50
2023-02-16T12:37:10.511Z,45.97
2023-02-16T12:40:03.677Z,38.37
2023-02-16T12:42:49.054Z,43.00
2023-02-16T12:45:22.516Z,40.50
2023-02-16T12:47:59.731Z,45.53
2023-02-16T12:50:32.391Z,39.47
2023-02-16T12:53:11.894Z,47.97
2023-02-16T12:55:59.741Z,47.43
2023-02-16T12:58:33.745Z,41.83
2023-02-16T13:01:12.120Z,42.33
2023-02-16T13:03:59.717Z,49.17
2023-02-16T13:06:48.518Z,46.87
2023-02-16T13:09:34.045Z,48.40
2023-02-16T13:12:19.349Z,52.13
2023-02-16T13:14:54.912Z,57.40
2023-02-16T13:17:31.927Z,65.00
2023-02-16T13:19:58.329Z,63.97
2023-02-16T13:22:49.142Z,56.50
2023-02-16T13:25:35.681Z,56.40
2023-02-16T13:28:31.289Z,44.77
2023-02-16T13:31:12.417Z,47.73
2023-02-16T13:33:57.496Z,51.77
2023-02-16T13:36:38.940Z,59.80
2023-02-16T13:39:29.864Z,47.27
2023-02-16T13:42:08.497Z,55.00
2023-02-16T13:44:44.620Z,50.43
2023-02-16T13:47:16.121Z,48.63
2023-02-16T13:49:43.333Z,51.33
2023-02-16T13:52:11.786Z,46.83
2023-02-16T13:54:41.837Z,51.77
2023-02-16T13:57:13.619Z,59.40
2023-02-16T13:59:40.042Z,53.60
2023-02-16T14:02:12.951Z,51.67
2023-02-16T14:04:39.596Z,56.17
2023-02-16T14:07:09.586Z,53.47
2023-02-16T14:09:38.817Z,53.23
2023-02-16T14:12:14.373Z,50.67
2023-02-16T14:14:43.744Z,54.87
2023-02-16T14:17:19.107Z,61.40
2023-02-16T14:20:00.824Z,62.57
2023-02-16T14:22:39.347Z,55.70
2023-02-16T14:25:28.826Z,61.50
2023-02-16T14:27:58.210Z,54.07
2023-02-16T14:30:36.093Z,60.87
2023-02-16T14:33:31.017Z,56.20
2023-02-16T14:35:58.106Z,63.90
2023-02-16T14:38:34.609Z,62.80
2023-02-16T14:41:08.716Z,53.93
2023-02-16T14:43:41.573Z,58.27
2023-02-16T14:46:26.941Z,52.33
2023-02-16T14:49:14.751Z,64.70
2023-02-16T14:51:55.005Z,51.13
2023-02-16T14:54:27.731Z,54.97
2023-02-16T14:57:02.066Z,45.67
2023-02-16T14:59:39.287Z,48.27
2023-02-16T15:02:35.192Z,48.53
2023-02-16T15:05:23.125Z,46.80
2023-02-16T15:08:02.448Z,51.43
2023-02-16T15:10:35.725Z,54.43
2023-02-16T15:13:02.180Z,51.87
2023-02-16T15:15:45.684Z,58.23
2023-02-16T15:18:18.486Z,49.97
2023-02-16T15:20:48.263Z,48.00
2023-02-16T15:23:19.410Z,46.00
2023-02-16T15:26:04.038Z,64.57
2023-02-16T15:28:33.717Z,52.13
2023-02-16T15:31:05.702Z,55.10
2023-02-16T15:33:39.531Z,44.70
2023-02-16T15:36:13.382Z,46.80
2023-02-16T15:38:43.099Z,54.80
2023-02-16T15:41:13.898Z,43.77
2023-02-16T15:43:43.256Z,49.10
2023-02-16T15:46:22.763Z,45.10
2023-02-16T15:48:50.754Z,42.93
2023-02-16T15:51:22.105Z,52.13
2023-02-16T15:53:51.778Z,57.10
2023-02-16T15:56:20.969Z,44.77
2023-02-16T15:58:47.637Z,43.47
2023-02-16T16:01:31.255Z,58.53
2023-02-16T16:04:18.879Z,48.47
2023-02-16T16:06:46.616Z,42.67
2023-02-16T16:09:25.300Z,51.30
2023-02-16T16:11:55.711Z,40.40
2023-02-16T16:14:23.129Z,43.90
2023-02-16T16:16:50.444Z,44.50
2023-02-16T16:19:20.892Z,47.13
2023-02-16T16:21:51.231Z,45.13
2023-02-16T16:24:38.681Z,38.33
2023-02-16T16:27:11.605Z,38.73
2023-02-16T16:29:47.563Z,46.00
2023-02-16T16:32:21.193Z,41.63
2023-02-16T16:34:48.870Z,38.63
2023-02-16T16:37:28.319Z,39.83
2023-02-16T16:40:21.880Z,45.93
2023-02-16T16:43:15.483Z,48.93
2023-02-16T16:45:44.313Z,45.30
2023-02-16T16:48:10.730Z,40.53
2023-02-16T16:50:39.760Z,43.10
2023-02-16T16:53:31.587Z,42.70
2023-02-16T16:55:57.980Z,39.77
2023-02-16T16:58:24.406Z,42.80
2023-02-16T17:00:50.754Z,43.13
2023-02-16T17:03:18.128Z,39.90
2023-02-16T17:05:45.990Z,43.27
2023-02-16T17:08:12.429Z,37.33
2023-02-16T17:10:40.806Z,45.07
2023-02-16T17:13:08.101Z,36.70
2023-02-16T17:15:41.957Z,42.20
2023-02-16T17:18:15.399Z,34.13
2023-02-16T17:20:42.235Z,31.47
2023-02-16T17:23:12.053Z,35.73
2023-02-16T17:25:38.682Z,33.53
2023-02-16T17:28:05.537Z,43.40
2023-02-16T17:30:32.714Z,53.77
2023-02-16T17:32:59.402Z,41.90
2023-02-16T17:35:26.143Z,36.20
2023-02-16T17:37:52.543Z,40.60
2023-02-16T17:40:21.746Z,36.50
2023-02-16T17:42:49.774Z,32.37
2023-02-16T17:45:19.094Z,33.43
2023-02-16T17:47:46.540Z,29.73
2023-02-16T17:50:14.680Z,32.17
2023-02-16T17:52:42.310Z,25.93
2023-02-16T17:55:09.570Z,29.27
2023-02-16T17:57:37.583Z,28.20
2023-02-16T18:00:06.645Z,21.70
2023-02-16T18:02:33.991Z,29.47
2023-02-16T18:05:00.481Z,35.47
2023-02-16T18:07:27.122Z,19.10
2023-02-16T18:09:54.268Z,24.33
2023-02-16T18:12:20.834Z,20.90
2023-02-16T18:14:47.229Z,36.83
2023-02-16T18:17:13.615Z,30.97
2023-02-16T18:19:43.144Z,21.17
2023-02-16T18:22:09.774Z,25.97
2023-02-16T18:24:36.505Z,19.30
2023-02-16T18:27:02.915Z,24.07
2023-02-16T18:29:29.664Z,19.17
2023-02-16T18:31:56.278Z,25.43
2023-02-16T18:34:24.650Z,18.37
2023-02-16T18:36:51.956Z,20.10
2023-02-16T18:39:18.297Z,23.83
2023-02-16T18:41:44.687Z,16.37
2023-02-16T18:44:11.653Z,18.90
2023-02-16T18:46:38.027Z,19.37
2023-02-16T18:49:06.202Z,19.13
2023-02-16T18:51:33.471Z,16.77
2023-02-16T18:53:59.824Z,17.50
2023-02-16T18:56:27.395Z,17.83
2023-02-16T18:58:54.443Z,13.57
2023-02-16T19:01:28.245Z,27.47
2023-02-16T19:03:55.139Z,15.97
2023-02-16T19:06:21.959Z,12.90
2023-02-16T19:08:48.495Z,14.30
2023-02-16T19:11:14.850Z,17.97
2023-02-16T19:13:41.290Z,23.10
2023-02-16T19:16:08.138Z,26.87
2023-02-16T19:18:35.109Z,16.13
2023-02-16T19:21:09.670Z,17.37
2023-02-16T19:23:36.925Z,15.07
2023-02-16T19:26:13.355Z,33.97
2023-02-16T19:28:40.329Z,21.97
2023-02-16T19:31:09.363Z,27.67
2023-02-16T19:33:35.906Z,26.33
2023-02-16T19:36:08.476Z,21.10
2023-02-16T19:38:34.802Z,20.93
2023-02-16T19:41:01.224Z,19.73
2023-02-16T19:43:27.605Z,27.57
2023-02-16T19:45:53.979Z,25.07
2023-02-16T19:48:20.340Z,33.77
2023-02-16T19:50:46.671Z,22.30
2023-02-16T19:53:13.009Z,26.07
2023-02-16T19:55:40.742Z,23.00
2023-02-16T19:58:07.163Z,20.27
2023-02-16T20:00:33.487Z,34.03
2023-02-16T20:03:00.062Z,23.63
2023-02-16T20:05:27.678Z,38.33
2023-02-16T20:07:54.000Z,19.97
2023-02-16T20:10:20.381Z,19.63
2023-02-16T20:12:46.784Z,18.10
2023-02-16T20:15:15.332Z,20.90
2023-02-16T20:17:41.756Z,17.27
2023-02-16T20:20:08.258Z,24.47
2023-02-16T20:22:34.629Z,19.27
2023-02-16T20:25:01.009Z,18.17
2023-02-16T20:27:28.429Z,29.33
2023-02-16T20:29:55.302Z,21.53
2023-02-16T20:32:26.090Z,19.47
2023-02-16T20:34:52.772Z,26.37
2023-02-16T20:37:19.384Z,20.23
2023-02-16T20:39:47.457Z,23.87
2023-02-16T20:42:13.869Z,21.13
2023-02-16T20:44:40.326Z,18.03
2023-02-16T20:47:08.027Z,17.43
2023-02-16T20:49:35.149Z,27.97
2023-02-16T20:52:01.833Z,22.50
2023-02-16T20:54:28.333Z,22.47
2023-02-16T20:56:54.824Z,18.80
2023-02-16T20:59:21.290Z,19.60
2023-02-16T21:01:51.082Z,23.27
2023-02-16T21:04:19.484Z,22.13
2023-02-16T21:06:45.930Z,29.10
2023-02-16T21:09:12.567Z,27.17
2023-02-16T21:11:39.693Z,22.30
2023-02-16T21:14:07.850Z,25.80
2023-02-16T21:16:34.804Z,26.37
2023-02-16T21:19:01.196Z,21.93
2023-02-16T21:21:27.599Z,26.20
2023-02-16T21:23:55.132Z,29.87
2023-02-16T21:26:24.132Z,28.13
2023-02-16T21:28:51.037Z,23.87
2023-02-16T21:31:20.495Z,26.57
2023-02-16T21:33:47.246Z,26.30
2023-02-16T21:36:17.039Z,37.10
2023-02-16T21:38:45.077Z,30.60
2023-02-16T21:41:27.592Z,34.43
2023-02-16T21:44:04.500Z,35.53
2023-02-16T21:46:34.005Z,29.53
2023-02-16T21:49:00.876Z,33.47
2023-02-16T21:51:30.805Z,25.77
2023-02-16T21:53:58.367Z,37.03
2023-02-16T21:56:45.502Z,28.43
2023-02-16T21:59:14.966Z,38.53
2023-02-16T22:01:43.814Z,39.97
2023-02-16T22:04:12.416Z,35.13
2023-02-16T22:06:41.318Z,36.03
2023-02-16T22:09:11.366Z,32.20
2023-02-16T22:11:38.624Z,34.17
2023-02-16T22:14:05.165Z,30.63
2023-02-16T22:16:33.719Z,38.07
2023-02-16T22:19:04.957Z,35.63
2023-02-16T22:21:35.636Z,30.17
2023-02-16T22:24:02.158Z,37.43
2023-02-16T22:26:31.101Z,39.30
2023-02-16T22:28:58.349Z,30.87
2023-02-16T22:31:27.657Z,32.60
2023-02-16T22:33:58.429Z,34.07
2023-02-16T22:36:25.151Z,37.83
2023-02-16T22:38:52.254Z,38.63
2023-02-16T22:41:19.139Z,34.90
2023-02-16T22:43:45.578Z,35.67
2023-02-16T22:46:15.279Z,45.27
2023-02-16T22:48:42.660Z,39.73
2023-02-16T22:51:12.681Z,35.57
2023-02-16T22:53:39.631Z,45.47
2023-02-16T22:56:09.201Z,49.50
2023-02-16T22:58:36.775Z,37.00
2023-02-16T23:01:04.014Z,39.20
2023-02-16T23:03:31.103Z,38.70
2023-02-16T23:05:57.535Z,40.07
2023-02-16T23:08:23.856Z,38.40
2023-02-16T23:11:02.090Z,34.67
2023-02-16T23:13:30.741Z,35.70
2023-02-16T23:15:57.747Z,37.87
2023-02-16T23:18:24.826Z,39.37
2023-02-16T23:20:51.174Z,36.17
2023-02-16T23:23:17.557Z,49.43
2023-02-16T23:25:48.435Z,40.20
2023-02-16T23:28:15.338Z,37.53
2023-02-16T23:30:44.287Z,37.37
2023-02-16T23:33:11.549Z,40.67
2023-02-16T23:35:39.487Z,31.53
2023-02-16T23:38:07.103Z,35.20
2023-02-16T23:40:33.806Z,35.47
2023-02-16T23:43:00.302Z,35.87
2023-02-16T23:45:26.697Z,33.00
2023-02-16T23:47:53.028Z,34.43
2023-02-16T23:50:19.605Z,31.93
2023-02-16T23:52:45.966Z,32.47
2023-02-16T23:55:12.302Z,29.70
2023-02-16T23:57:38.691Z,32.40
